createdAt,value
2022-12-24T00:00:00.765Z,759
2022-12-24T00:01:00.743Z,1031
2022-12-24T00:03:01.013Z,1031
2022-12-24T00:04:00.794Z,835
2022-12-24T00:05:01.236Z,783
2022-12-24T00:06:00.747Z,1038
2022-12-24T00:08:00.872Z,788
2022-12-24T00:09:00.750Z,1147
2022-12-24T00:10:00.764Z,885
2022-12-24T00:11:00.757Z,1190
2022-12-24T00:13:00.878Z,1144
2022-12-24T00:14:00.753Z,830
2022-12-24T00:15:00.756Z,909
2022-12-24T00:16:00.765Z,738
2022-12-24T00:18:00.923Z,895
2022-12-24T00:19:00.783Z,810
2022-12-24T00:20:00.765Z,815
2022-12-24T00:21:00.826Z,1071
2022-12-24T00:23:00.922Z,812
2022-12-24T00:24:00.752Z,749
2022-12-24T00:25:00.778Z,974
2022-12-24T00:26:00.764Z,797
2022-12-24T00:28:00.969Z,745
2022-12-24T00:29:00.756Z,828
2022-12-24T00:30:00.752Z,1071
2022-12-24T00:31:00.918Z,992
2022-12-24T00:33:00.886Z,1100
2022-12-24T00:34:00.758Z,977
2022-12-24T00:35:00.775Z,747
2022-12-24T00:36:00.772Z,981
2022-12-24T00:38:00.879Z,751
2022-12-24T00:39:00.775Z,1130
2022-12-24T00:40:00.804Z,1091
2022-12-24T00:41:00.763Z,845
2022-12-24T00:43:00.969Z,1078
2022-12-24T00:44:00.763Z,774
2022-12-24T00:45:00.776Z,759
2022-12-24T00:46:00.829Z,983
2022-12-24T00:48:00.965Z,749
2022-12-24T00:49:00.773Z,872
2022-12-24T00:50:00.766Z,819
2022-12-24T00:51:00.774Z,995
2022-12-24T00:53:00.964Z,830
2022-12-24T00:54:00.759Z,696
2022-12-24T00:55:00.786Z,916
2022-12-24T00:56:00.772Z,862
2022-12-24T00:58:00.972Z,730
2022-12-24T00:59:00.788Z,966
2022-12-24T01:00:00.812Z,957
2022-12-24T01:01:00.837Z,986
2022-12-24T01:03:01.103Z,734
2022-12-24T01:04:00.772Z,1106
2022-12-24T01:05:00.763Z,862
2022-12-24T01:06:00.788Z,872
2022-12-24T01:08:00.979Z,763
2022-12-24T01:09:00.809Z,761
2022-12-24T01:10:00.779Z,777
2022-12-24T01:11:00.805Z,783
2022-12-24T01:13:00.901Z,1002
2022-12-24T01:14:00.783Z,997
2022-12-24T01:15:00.780Z,1034
2022-12-24T01:16:00.821Z,779
2022-12-24T01:18:00.895Z,741
2022-12-24T01:19:00.792Z,966
2022-12-24T01:20:00.778Z,761
2022-12-24T01:21:00.813Z,977
2022-12-24T01:23:00.956Z,712
2022-12-24T01:24:00.773Z,1128
2022-12-24T01:25:00.786Z,1052
2022-12-24T01:26:00.775Z,806
2022-12-24T01:28:00.984Z,1068
2022-12-24T01:29:00.777Z,892
2022-12-24T01:30:00.806Z,839
2022-12-24T01:31:00.885Z,715
2022-12-24T01:33:01.050Z,712
2022-12-24T01:34:00.806Z,797
2022-12-24T01:35:00.781Z,930
2022-12-24T01:36:00.815Z,946
2022-12-24T01:38:00.922Z,992
2022-12-24T01:39:00.788Z,1040
2022-12-24T01:40:00.783Z,981
2022-12-24T01:41:00.794Z,1027
2022-12-24T01:43:00.961Z,1093
2022-12-24T01:44:00.808Z,674
2022-12-24T01:45:00.789Z,1043
2022-12-24T01:46:00.830Z,1049
2022-12-24T01:48:00.980Z,949
2022-12-24T01:49:00.785Z,914
2022-12-24T01:50:00.796Z,728
2022-12-24T01:51:00.804Z,627
2022-12-24T01:53:01.011Z,995
2022-12-24T01:54:00.787Z,966
2022-12-24T01:55:00.808Z,986
2022-12-24T01:56:00.806Z,770
2022-12-24T01:58:01.028Z,640
2022-12-24T01:59:00.790Z,909
2022-12-24T02:00:00.853Z,698
2022-12-24T02:01:00.805Z,911
2022-12-24T02:03:01.101Z,857
2022-12-24T02:04:00.790Z,901
2022-12-24T02:05:00.803Z,726
2022-12-24T02:06:00.804Z,733
2022-12-24T02:08:01.023Z,734
2022-12-24T02:09:00.825Z,1062
2022-12-24T02:10:00.798Z,709
2022-12-24T02:11:00.794Z,826
2022-12-24T02:13:00.999Z,821
2022-12-24T02:14:00.832Z,1052
2022-12-24T02:15:00.823Z,1084
2022-12-24T02:16:00.878Z,832
2022-12-24T02:18:01.024Z,1084
2022-12-24T02:19:00.807Z,653
2022-12-24T02:20:00.815Z,864
2022-12-24T02:21:00.799Z,763
2022-12-24T02:23:00.927Z,624
2022-12-24T02:24:00.806Z,969
2022-12-24T02:25:00.813Z,983
2022-12-24T02:26:00.796Z,997
2022-12-24T02:28:00.931Z,983
2022-12-24T02:29:00.813Z,675
2022-12-24T02:30:00.853Z,878
2022-12-24T02:31:00.886Z,730
2022-12-24T02:33:00.978Z,914
2022-12-24T02:34:00.814Z,726
2022-12-24T02:35:00.873Z,957
2022-12-24T02:36:00.816Z,981
2022-12-24T02:38:00.968Z,969
2022-12-24T02:39:00.839Z,611
2022-12-24T02:40:00.818Z,1096
2022-12-24T02:41:00.813Z,1027
2022-12-24T02:43:00.934Z,1071
2022-12-24T02:44:00.809Z,974
2022-12-24T02:45:00.815Z,631
2022-12-24T02:46:00.821Z,925
2022-12-24T02:48:00.932Z,966
2022-12-24T02:49:00.810Z,1059
2022-12-24T02:50:00.804Z,801
2022-12-24T02:51:00.824Z,1046
2022-12-24T02:53:00.945Z,801
2022-12-24T02:54:00.821Z,864
2022-12-24T02:55:00.816Z,842
2022-12-24T02:56:00.828Z,828
2022-12-24T02:58:00.947Z,1124
2022-12-24T02:59:00.819Z,868
2022-12-24T03:00:00.809Z,765
2022-12-24T03:01:00.855Z,770
2022-12-24T03:03:01.042Z,779
2022-12-24T03:04:00.820Z,726
2022-12-24T03:05:00.814Z,944
2022-12-24T03:06:00.819Z,714
2022-12-24T03:08:01.018Z,981
2022-12-24T03:09:00.819Z,749
2022-12-24T03:10:00.818Z,969
2022-12-24T03:11:00.824Z,966
2022-12-24T03:13:01.019Z,726
2022-12-24T03:14:00.856Z,1116
2022-12-24T03:15:00.854Z,797
2022-12-24T03:16:00.849Z,1128
2022-12-24T03:18:00.957Z,1198
2022-12-24T03:19:00.845Z,1157
2022-12-24T03:20:00.853Z,1043
2022-12-24T03:21:00.830Z,888
2022-12-24T03:23:01.033Z,1134
2022-12-24T03:24:00.820Z,1144
2022-12-24T03:25:00.893Z,969
2022-12-24T03:26:00.823Z,1128
2022-12-24T03:28:01.025Z,1144
2022-12-24T03:29:00.827Z,864
2022-12-24T03:30:00.842Z,1071
2022-12-24T03:31:00.832Z,1150
2022-12-24T03:33:01.042Z,1179
2022-12-24T03:34:00.817Z,1235
2022-12-24T03:35:00.822Z,949
2022-12-24T03:36:00.832Z,1291
2022-12-24T03:38:00.989Z,1276
2022-12-24T03:39:00.853Z,1179
2022-12-24T03:40:00.830Z,1128
2022-12-24T03:41:00.822Z,880
2022-12-24T03:43:00.965Z,849
2022-12-24T03:44:00.829Z,1173
2022-12-24T03:45:00.874Z,1144
2022-12-24T03:46:00.884Z,874
2022-12-24T03:48:00.991Z,1100
2022-12-24T03:49:00.860Z,1016
2022-12-24T03:50:00.837Z,990
2022-12-24T03:51:00.836Z,1009
2022-12-24T03:53:00.999Z,794
2022-12-24T03:54:00.838Z,1116
2022-12-24T03:55:00.840Z,637
2022-12-24T03:56:00.835Z,872
2022-12-24T03:58:00.997Z,1154
2022-12-24T03:59:00.865Z,821
2022-12-24T04:00:00.889Z,1027
2022-12-24T04:01:00.921Z,974
2022-12-24T04:03:01.048Z,720
2022-12-24T04:04:00.843Z,1170
2022-12-24T04:05:00.836Z,1161
2022-12-24T04:06:00.949Z,892
2022-12-24T04:08:00.965Z,1170
2022-12-24T04:09:00.895Z,1130
2022-12-24T04:10:00.876Z,849
2022-12-24T04:11:04.813Z,803
2022-12-24T04:13:01.006Z,1109
2022-12-24T04:14:00.843Z,1093
2022-12-24T04:15:00.844Z,847
2022-12-24T04:16:00.867Z,874
2022-12-24T04:18:01.007Z,1004
2022-12-24T04:19:00.839Z,855
2022-12-24T04:20:00.836Z,1198
2022-12-24T04:21:00.850Z,1186
2022-12-24T04:23:01.007Z,878
2022-12-24T04:24:00.858Z,930
2022-12-24T04:25:00.868Z,828
2022-12-24T04:26:00.844Z,733
2022-12-24T04:28:01.057Z,909
2022-12-24T04:29:00.849Z,1046
2022-12-24T04:30:00.877Z,1018
2022-12-24T04:31:00.851Z,779
2022-12-24T04:33:01.100Z,855
2022-12-24T04:34:00.846Z,1046
2022-12-24T04:35:00.860Z,788
2022-12-24T04:36:00.851Z,763
2022-12-24T04:38:01.052Z,1059
2022-12-24T04:39:00.851Z,801
2022-12-24T04:40:00.861Z,689
2022-12-24T04:41:00.863Z,1071
2022-12-24T04:43:00.972Z,1046
2022-12-24T04:44:00.866Z,733
2022-12-24T04:45:00.850Z,962
2022-12-24T04:46:00.909Z,927
2022-12-24T04:48:00.985Z,955
2022-12-24T04:49:00.856Z,966
2022-12-24T04:50:00.863Z,944
2022-12-24T04:51:00.862Z,717
2022-12-24T04:53:00.990Z,955
2022-12-24T04:54:00.854Z,971
2022-12-24T04:55:00.879Z,704
2022-12-24T04:56:00.869Z,646
2022-12-24T04:58:01.062Z,951
2022-12-24T04:59:00.869Z,1040
2022-12-24T05:00:00.863Z,777
2022-12-24T05:01:01.004Z,1027
2022-12-24T05:03:01.072Z,1056
2022-12-24T05:04:00.867Z,761
2022-12-24T05:05:00.868Z,761
2022-12-24T05:06:01.579Z,1002
2022-12-24T05:08:01.071Z,765
2022-12-24T05:09:00.866Z,761
2022-12-24T05:10:00.853Z,1049
2022-12-24T05:11:00.869Z,1034
2022-12-24T05:13:01.012Z,777
2022-12-24T05:14:00.894Z,1018
2022-12-24T05:15:00.858Z,990
2022-12-24T05:16:00.880Z,1016
2022-12-24T05:18:00.993Z,1031
2022-12-24T05:19:00.857Z,761
2022-12-24T05:20:00.864Z,944
2022-12-24T05:21:00.889Z,777
2022-12-24T05:23:00.994Z,1016
2022-12-24T05:24:00.883Z,951
2022-12-24T05:25:00.869Z,715
2022-12-24T05:26:00.877Z,966
2022-12-24T05:28:01.100Z,974
2022-12-24T05:29:00.869Z,733
2022-12-24T05:30:00.875Z,920
2022-12-24T05:31:00.890Z,920
2022-12-24T05:33:01.068Z,962
2022-12-24T05:34:00.882Z,955
2022-12-24T05:35:00.901Z,857
2022-12-24T05:36:00.942Z,726
2022-12-24T05:38:01.042Z,925
2022-12-24T05:39:00.866Z,933
2022-12-24T05:40:00.935Z,712
2022-12-24T05:41:00.872Z,712
2022-12-24T05:43:01.043Z,944
2022-12-24T05:44:00.876Z,916
2022-12-24T05:45:00.873Z,687
2022-12-24T05:46:00.906Z,704
2022-12-24T05:48:01.011Z,855
2022-12-24T05:49:00.876Z,770
2022-12-24T05:50:00.903Z,689
2022-12-24T05:51:00.882Z,1031
2022-12-24T05:53:01.093Z,745
2022-12-24T05:54:00.880Z,799
2022-12-24T05:55:00.882Z,1059
2022-12-24T05:56:00.905Z,870
2022-12-24T05:58:01.003Z,1084
2022-12-24T05:59:00.946Z,971
2022-12-24T06:00:00.882Z,916
2022-12-24T06:01:00.910Z,734
2022-12-24T06:03:01.070Z,720
2022-12-24T06:04:00.965Z,653
2022-12-24T06:05:00.921Z,658
2022-12-24T06:06:00.901Z,777
2022-12-24T06:08:01.113Z,872
2022-12-24T06:09:00.922Z,870
2022-12-24T06:10:00.885Z,665
2022-12-24T06:11:00.895Z,880
2022-12-24T06:13:01.085Z,862
2022-12-24T06:14:00.904Z,656
2022-12-24T06:15:00.904Z,899
2022-12-24T06:16:01.038Z,680
2022-12-24T06:18:01.028Z,797
2022-12-24T06:19:00.889Z,693
2022-12-24T06:20:00.888Z,720
2022-12-24T06:21:00.911Z,983
2022-12-24T06:23:01.084Z,777
2022-12-24T06:24:00.930Z,738
2022-12-24T06:25:00.891Z,1088
2022-12-24T06:26:00.999Z,1091
2022-12-24T06:28:01.090Z,1128
2022-12-24T06:29:00.886Z,960
2022-12-24T06:30:00.903Z,868
2022-12-24T06:31:03.075Z,951
2022-12-24T06:33:01.009Z,906
2022-12-24T06:34:00.907Z,920
2022-12-24T06:35:00.888Z,832
2022-12-24T06:36:00.908Z,755
2022-12-24T06:38:01.099Z,715
2022-12-24T06:39:00.901Z,707
2022-12-24T06:40:00.900Z,930
2022-12-24T06:41:00.904Z,933
2022-12-24T06:43:01.065Z,969
2022-12-24T06:44:00.922Z,839
2022-12-24T06:45:03.822Z,650
2022-12-24T06:46:00.932Z,634
2022-12-24T06:48:01.111Z,868
2022-12-24T06:49:00.897Z,658
2022-12-24T06:50:00.939Z,864
2022-12-24T06:51:00.935Z,832
2022-12-24T06:53:01.026Z,501
2022-12-24T06:54:00.940Z,971
2022-12-24T06:55:00.928Z,971
2022-12-24T06:56:00.915Z,741
2022-12-24T06:58:01.075Z,990
2022-12-24T06:59:05.222Z,916
2022-12-24T07:00:00.935Z,704
2022-12-24T07:01:00.912Z,906
2022-12-24T07:03:01.071Z,957
2022-12-24T07:04:00.997Z,774
2022-12-24T07:05:00.936Z,1052
2022-12-24T07:06:00.947Z,1071
2022-12-24T07:08:01.039Z,927
2022-12-24T07:09:00.913Z,1043
2022-12-24T07:10:00.906Z,1113
2022-12-24T07:11:00.924Z,801
2022-12-24T07:13:01.066Z,1091
2022-12-24T07:14:00.907Z,779
2022-12-24T07:15:00.911Z,803
2022-12-24T07:16:00.970Z,1091
2022-12-24T07:18:01.045Z,828
2022-12-24T07:19:00.929Z,892
2022-12-24T07:20:00.911Z,971
2022-12-24T07:21:00.919Z,730
2022-12-24T07:23:01.135Z,962
2022-12-24T07:24:00.910Z,986
2022-12-24T07:25:00.916Z,668
2022-12-24T07:26:00.909Z,1049
2022-12-24T07:28:01.119Z,992
2022-12-24T07:29:00.921Z,788
2022-12-24T07:30:00.930Z,835
2022-12-24T07:31:01.075Z,1040
2022-12-24T07:33:01.046Z,1013
2022-12-24T07:34:00.928Z,1027
2022-12-24T07:35:00.940Z,1004
2022-12-24T07:36:00.957Z,799
2022-12-24T07:38:01.119Z,1009
2022-12-24T07:39:00.924Z,738
2022-12-24T07:40:00.920Z,1013
2022-12-24T07:41:00.916Z,962
2022-12-24T07:43:01.096Z,1018
2022-12-24T07:44:00.925Z,983
2022-12-24T07:45:00.934Z,743
2022-12-24T07:46:00.925Z,971
2022-12-24T07:48:01.084Z,923
2022-12-24T07:49:00.988Z,781
2022-12-24T07:50:00.946Z,925
2022-12-24T07:51:00.987Z,1068
2022-12-24T07:53:01.058Z,955
2022-12-24T07:54:00.921Z,940
2022-12-24T07:55:00.950Z,639
2022-12-24T07:56:00.924Z,925
2022-12-24T07:58:01.089Z,1082
2022-12-24T07:59:00.925Z,1056
2022-12-24T08:00:00.980Z,1065
2022-12-24T08:01:01.031Z,797
2022-12-24T08:03:01.270Z,1091
2022-12-24T08:04:00.960Z,741
2022-12-24T08:05:00.942Z,990
2022-12-24T08:06:00.931Z,734
2022-12-24T08:08:01.163Z,997
2022-12-24T08:09:00.929Z,759
2022-12-24T08:10:00.979Z,660
2022-12-24T08:11:01.002Z,728
2022-12-24T08:13:01.104Z,983
2022-12-24T08:14:00.925Z,977
2022-12-24T08:15:00.962Z,944
2022-12-24T08:16:00.973Z,768
2022-12-24T08:18:01.064Z,700
2022-12-24T08:19:00.936Z,966
2022-12-24T08:20:00.946Z,792
2022-12-24T08:21:00.957Z,1043
2022-12-24T08:23:01.065Z,1062
2022-12-24T08:24:00.955Z,888
2022-12-24T08:25:00.955Z,627
2022-12-24T08:26:00.950Z,693
2022-12-24T08:28:01.098Z,849
2022-12-24T08:29:00.997Z,885
2022-12-24T08:30:00.933Z,683
2022-12-24T08:31:00.967Z,955
2022-12-24T08:33:01.120Z,849
2022-12-24T08:34:00.958Z,808
2022-12-24T08:35:00.948Z,1084
2022-12-24T08:36:01.020Z,1071
2022-12-24T08:38:01.108Z,857
2022-12-24T08:39:01.005Z,1009
2022-12-24T08:40:00.941Z,774
2022-12-24T08:41:00.944Z,1071
2022-12-24T08:43:01.183Z,1088
2022-12-24T08:44:01.009Z,682
2022-12-24T08:45:00.966Z,930
2022-12-24T08:46:01.001Z,709
2022-12-24T08:48:01.162Z,920
2022-12-24T08:49:00.959Z,741
2022-12-24T08:50:00.974Z,741
2022-12-24T08:51:00.941Z,990
2022-12-24T08:53:01.158Z,741
2022-12-24T08:54:00.936Z,1082
2022-12-24T08:55:00.940Z,890
2022-12-24T08:56:00.946Z,712
2022-12-24T08:58:01.185Z,1134
2022-12-24T08:59:00.951Z,837
2022-12-24T09:00:01.011Z,1113
2022-12-24T09:01:01.016Z,817
2022-12-24T09:03:01.192Z,1034
2022-12-24T09:04:00.952Z,837
2022-12-24T09:05:00.952Z,665
2022-12-24T09:06:00.959Z,682
2022-12-24T09:08:01.091Z,872
2022-12-24T09:09:00.984Z,1091
2022-12-24T09:10:00.959Z,786
2022-12-24T09:11:00.957Z,1071
2022-12-24T09:13:01.123Z,1078
2022-12-24T09:14:00.976Z,747
2022-12-24T09:15:03.612Z,763
2022-12-24T09:16:00.970Z,755
2022-12-24T09:18:01.185Z,868
2022-12-24T09:19:00.957Z,1059
2022-12-24T09:20:00.982Z,765
2022-12-24T09:21:00.982Z,969
2022-12-24T09:23:01.167Z,774
2022-12-24T09:24:00.960Z,946
2022-12-24T09:25:00.963Z,946
2022-12-24T09:26:00.986Z,693
2022-12-24T09:28:01.079Z,765
2022-12-24T09:29:00.963Z,701
2022-12-24T09:30:00.968Z,706
2022-12-24T09:31:00.958Z,706
2022-12-24T09:33:01.130Z,759
2022-12-24T09:34:01.027Z,923
2022-12-24T09:35:01.000Z,1038
2022-12-24T09:36:00.974Z,801
2022-12-24T09:38:01.086Z,983
2022-12-24T09:39:00.995Z,755
2022-12-24T09:40:01.031Z,1009
2022-12-24T09:41:05.338Z,720
2022-12-24T09:43:01.088Z,714
2022-12-24T09:44:00.990Z,935
2022-12-24T09:45:00.972Z,890
2022-12-24T09:46:01.014Z,707
2022-12-24T09:48:01.093Z,817
2022-12-24T09:49:00.975Z,763
2022-12-24T09:50:00.997Z,1007
2022-12-24T09:51:00.970Z,755
2022-12-24T09:53:01.135Z,765
2022-12-24T09:54:00.980Z,728
2022-12-24T09:55:00.979Z,962
2022-12-24T09:56:01.000Z,935
2022-12-24T09:58:01.149Z,783
2022-12-24T09:59:00.967Z,1002
2022-12-24T10:00:00.968Z,738
2022-12-24T10:01:01.038Z,738
2022-12-24T10:03:01.106Z,951
2022-12-24T10:04:00.970Z,1084
2022-12-24T10:05:00.973Z,810
2022-12-24T10:06:00.975Z,1071
2022-12-24T10:08:01.100Z,839
2022-12-24T10:09:00.989Z,1088
2022-12-24T10:10:00.984Z,1071
2022-12-24T10:11:00.977Z,1071
2022-12-24T10:13:01.146Z,1038
2022-12-24T10:14:01.006Z,1018
2022-12-24T10:15:00.997Z,971
2022-12-24T10:16:00.976Z,847
2022-12-24T10:18:01.181Z,611
2022-12-24T10:19:00.995Z,1056
2022-12-24T10:20:01.012Z,1121
2022-12-24T10:21:00.993Z,1161
2022-12-24T10:23:01.188Z,777
2022-12-24T10:24:00.982Z,781
2022-12-24T10:25:01.031Z,1100
2022-12-24T10:26:00.980Z,1157
2022-12-24T10:28:01.102Z,1183
2022-12-24T10:29:00.987Z,1113
2022-12-24T10:30:00.997Z,1201
2022-12-24T10:31:00.997Z,906
2022-12-24T10:33:01.194Z,962
2022-12-24T10:34:00.991Z,743
2022-12-24T10:35:00.997Z,1002
2022-12-24T10:36:02.293Z,761
2022-12-24T10:38:01.172Z,797
2022-12-24T10:39:00.990Z,799
2022-12-24T10:40:00.982Z,797
2022-12-24T10:41:00.993Z,933
2022-12-24T10:43:01.113Z,797
2022-12-24T10:44:01.062Z,817
2022-12-24T10:45:01.007Z,772
2022-12-24T10:46:01.027Z,1071
2022-12-24T10:48:01.231Z,839
2022-12-24T10:49:00.991Z,1027
2022-12-24T10:50:01.071Z,717
2022-12-24T10:51:00.999Z,693
2022-12-24T10:53:01.115Z,733
2022-12-24T10:54:01.003Z,862
2022-12-24T10:55:01.010Z,1096
2022-12-24T10:56:00.992Z,826
2022-12-24T10:58:01.171Z,1194
2022-12-24T10:59:01.007Z,1235
2022-12-24T11:00:01.000Z,944
2022-12-24T11:01:01.066Z,1250
2022-12-24T11:03:01.361Z,895
2022-12-24T11:04:01.000Z,763
2022-12-24T11:05:01.084Z,828
2022-12-24T11:06:01.097Z,792
2022-12-24T11:08:01.201Z,770
2022-12-24T11:09:01.003Z,1183
2022-12-24T11:10:01.016Z,1258
2022-12-24T11:11:01.013Z,1239
2022-12-24T11:13:35.431Z,1268
2022-12-24T11:14:01.009Z,1201
2022-12-24T11:15:01.004Z,1106
2022-12-24T11:16:01.094Z,826
2022-12-24T11:18:01.167Z,1100
2022-12-24T11:19:01.073Z,1154
2022-12-24T11:20:00.998Z,1113
2022-12-24T11:21:01.015Z,1027
2022-12-24T11:23:01.207Z,1141
2022-12-24T11:24:01.013Z,911
2022-12-24T11:25:01.001Z,1246
2022-12-24T11:26:01.034Z,1328
2022-12-24T11:28:01.171Z,1359
2022-12-24T11:29:01.006Z,1161
2022-12-24T11:30:02.240Z,895
2022-12-24T11:31:01.057Z,1224
2022-12-24T11:33:01.178Z,1224
2022-12-24T11:34:01.011Z,1311
2022-12-24T11:35:01.016Z,1038
2022-12-24T11:36:01.012Z,1056
2022-12-24T11:38:01.279Z,1038
2022-12-24T11:39:01.033Z,1040
2022-12-24T11:40:01.006Z,1007
2022-12-24T11:41:01.089Z,1161
2022-12-24T11:43:01.143Z,1367
2022-12-24T11:44:01.044Z,935
2022-12-24T11:45:01.040Z,878
2022-12-24T11:46:01.041Z,1239
2022-12-24T11:48:01.214Z,1071
2022-12-24T11:49:05.958Z,1207
2022-12-24T11:50:17.441Z,874
2022-12-24T11:51:01.028Z,832
2022-12-24T11:53:01.230Z,857
2022-12-24T11:54:01.016Z,1157
2022-12-24T11:55:01.023Z,925
2022-12-24T11:56:01.026Z,1212
2022-12-24T11:58:01.274Z,1291
2022-12-24T11:59:01.015Z,1002
2022-12-24T12:00:01.017Z,1052
2022-12-24T12:01:01.014Z,1038
2022-12-24T12:03:01.259Z,1002
2022-12-24T12:04:01.097Z,1322
2022-12-24T12:05:01.015Z,1038
2022-12-24T12:06:01.027Z,1002
2022-12-24T12:08:01.228Z,1040
2022-12-24T12:09:01.029Z,1027
2022-12-24T12:10:01.032Z,1016
2022-12-24T12:11:01.065Z,1004
2022-12-24T12:13:01.235Z,1359
2022-12-24T12:14:01.034Z,1322
2022-12-24T12:15:01.018Z,1038
2022-12-24T12:16:01.049Z,1018
2022-12-24T12:18:01.196Z,1038
2022-12-24T12:19:01.036Z,983
2022-12-24T12:20:01.062Z,1204
2022-12-24T12:21:01.024Z,794
2022-12-24T12:23:01.233Z,864
2022-12-24T12:24:01.046Z,1096
2022-12-24T12:25:01.026Z,1176
2022-12-24T12:26:01.030Z,1207
2022-12-24T12:28:01.238Z,1147
2022-12-24T12:29:01.036Z,1414
2022-12-24T12:30:01.039Z,1147
2022-12-24T12:31:01.064Z,1128
2022-12-24T12:33:01.231Z,1013
2022-12-24T12:34:01.037Z,1430
2022-12-24T12:35:01.032Z,1487
2022-12-24T12:36:01.036Z,1062
2022-12-24T12:38:01.244Z,1487
2022-12-24T12:39:01.038Z,1509
2022-12-24T12:40:01.062Z,1474
2022-12-24T12:41:01.069Z,1124
2022-12-24T12:43:01.277Z,1224
2022-12-24T12:44:01.033Z,1523
2022-12-24T12:45:01.042Z,1678
2022-12-24T12:46:01.060Z,1546
2022-12-24T12:48:01.262Z,1336
2022-12-24T12:49:02.975Z,1100
2022-12-24T12:50:01.043Z,1474
2022-12-24T12:51:01.061Z,1109
2022-12-24T12:53:01.259Z,1116
2022-12-24T12:54:01.047Z,1299
2022-12-24T12:55:01.077Z,1082
2022-12-24T12:56:01.034Z,1084
2022-12-24T12:58:01.246Z,1038
2022-12-24T12:59:01.042Z,1509
2022-12-24T13:00:01.038Z,1653
2022-12-24T13:01:01.105Z,1179
2022-12-24T13:03:01.325Z,1653
2022-12-24T13:04:01.067Z,1212
2022-12-24T13:05:01.072Z,1541
2022-12-24T13:06:01.056Z,1207
2022-12-24T13:08:01.175Z,1318
2022-12-24T13:09:01.055Z,1212
2022-12-24T13:10:01.056Z,1173
2022-12-24T13:11:01.050Z,1569
2022-12-24T13:13:01.173Z,1204
2022-12-24T13:14:01.075Z,1134
2022-12-24T13:15:01.057Z,1173
2022-12-24T13:16:01.083Z,1492
2022-12-24T13:18:01.178Z,1221
2022-12-24T13:19:01.096Z,1281
2022-12-24T13:20:01.076Z,1643
2022-12-24T13:21:01.064Z,1359
2022-12-24T13:23:01.175Z,1627
2022-12-24T13:24:01.081Z,1821
2022-12-24T13:25:01.053Z,962
2022-12-24T13:26:01.057Z,1821
2022-12-24T13:28:01.261Z,1751
2022-12-24T13:29:01.053Z,1268
2022-12-24T13:30:07.165Z,1344
2022-12-24T13:31:01.057Z,1627
2022-12-24T13:33:01.179Z,1452
2022-12-24T13:34:01.073Z,1580
2022-12-24T13:35:01.075Z,1678
2022-12-24T13:36:01.063Z,1444
2022-12-24T13:38:01.190Z,1987
2022-12-24T13:39:01.065Z,1250
2022-12-24T13:40:01.072Z,1496
2022-12-24T13:41:01.062Z,1457
2022-12-24T13:43:01.248Z,1457
2022-12-24T13:44:01.063Z,1410
2022-12-24T13:45:01.061Z,1500
2022-12-24T13:46:01.146Z,1465
2022-12-24T13:48:01.195Z,1394
2022-12-24T13:49:01.070Z,1963
2022-12-24T13:50:01.107Z,1273
2022-12-24T13:51:01.094Z,1541
2022-12-24T13:53:01.294Z,1939
2022-12-24T13:54:01.058Z,1697
2022-12-24T13:55:01.108Z,1347
2022-12-24T13:56:01.064Z,1922
2022-12-24T13:58:01.184Z,1912
2022-12-24T13:59:01.068Z,1569
2022-12-24T14:00:01.119Z,1444
2022-12-24T14:01:01.090Z,2130
2022-12-24T14:03:01.350Z,2106
2022-12-24T14:04:01.061Z,2259
2022-12-24T14:05:01.118Z,1767
2022-12-24T14:06:01.077Z,2464
2022-12-24T14:08:01.237Z,1987
2022-12-24T14:09:01.073Z,2283
2022-12-24T14:10:01.091Z,1877
2022-12-24T14:11:01.087Z,2578
2022-12-24T14:13:01.202Z,2610
2022-12-24T14:14:01.066Z,1994
2022-12-24T14:15:01.087Z,1550
2022-12-24T14:16:01.110Z,1994
2022-12-24T14:18:01.234Z,1613
2022-12-24T14:19:01.078Z,1882
2022-12-24T14:20:01.081Z,1821
2022-12-24T14:21:01.077Z,2404
2022-12-24T14:23:01.279Z,1963
2022-12-24T14:24:01.079Z,1461
2022-12-24T14:25:01.095Z,1987
2022-12-24T14:26:01.143Z,2304
2022-12-24T14:28:01.285Z,1737
2022-12-24T14:29:01.136Z,2382
2022-12-24T14:30:01.089Z,1673
2022-12-24T14:31:01.089Z,2829
2022-12-24T14:33:01.208Z,2056
2022-12-24T14:34:01.101Z,2244
2022-12-24T14:35:01.089Z,2270
2022-12-24T14:36:01.113Z,1609
2022-12-24T14:38:01.209Z,2189
2022-12-24T14:39:01.082Z,1667
2022-12-24T14:40:01.111Z,1854
2022-12-24T14:41:01.111Z,1726
2022-12-24T14:43:01.283Z,1731
2022-12-24T14:44:01.088Z,1767
2022-12-24T14:45:01.098Z,2317
2022-12-24T14:46:01.102Z,2369
2022-12-24T14:48:01.318Z,2259
2022-12-24T14:49:01.092Z,1767
2022-12-24T14:50:01.090Z,1772
2022-12-24T14:51:01.093Z,1800
2022-12-24T14:53:07.044Z,2523
2022-12-24T14:54:01.095Z,1737
2022-12-24T14:55:01.175Z,2138
2022-12-24T14:56:01.094Z,2332
2022-12-24T14:58:01.258Z,2427
2022-12-24T14:59:01.089Z,1683
2022-12-24T15:00:01.145Z,1726
2022-12-24T15:01:01.103Z,1663
2022-12-24T15:03:01.395Z,1561
2022-12-24T15:04:01.109Z,1731
2022-12-24T15:05:01.151Z,2244
2022-12-24T15:06:01.101Z,2355
2022-12-24T15:08:01.312Z,1848
2022-12-24T15:09:01.125Z,1772
2022-12-24T15:10:01.252Z,2443
2022-12-24T15:11:01.099Z,2443
2022-12-24T15:13:01.264Z,1816
2022-12-24T15:14:01.096Z,2311
2022-12-24T15:15:01.114Z,1697
2022-12-24T15:16:01.125Z,2244
2022-12-24T15:18:01.296Z,2283
2022-12-24T15:19:01.092Z,2056
2022-12-24T15:20:01.188Z,2056
2022-12-24T15:21:04.209Z,2182
2022-12-24T15:23:01.319Z,1858
2022-12-24T15:24:01.105Z,2304
2022-12-24T15:25:01.099Z,2494
2022-12-24T15:26:01.111Z,2214
2022-12-24T15:28:01.264Z,2473
2022-12-24T15:29:03.463Z,1811
2022-12-24T15:30:01.105Z,2502
2022-12-24T15:31:01.136Z,2311
2022-12-24T15:33:01.238Z,2464
2022-12-24T15:34:01.110Z,2397
2022-12-24T15:35:01.117Z,2555
2022-12-24T15:36:01.106Z,2464
2022-12-24T15:38:01.239Z,1922
2022-12-24T15:39:01.119Z,2106
2022-12-24T15:40:01.187Z,1707
2022-12-24T15:41:01.110Z,2270
2022-12-24T15:43:01.317Z,1663
2022-12-24T15:44:01.129Z,1826
2022-12-24T15:45:01.106Z,1843
2022-12-24T15:46:01.124Z,1816
2022-12-24T15:48:01.314Z,1843
2022-12-24T15:49:01.110Z,2450
2022-12-24T15:50:01.123Z,2502
2022-12-24T15:51:01.112Z,2630
2022-12-24T15:53:18.477Z,1519
2022-12-24T15:54:01.108Z,2473
2022-12-24T15:55:01.115Z,1787
2022-12-24T15:56:01.148Z,2311
2022-12-24T15:58:01.319Z,1787
2022-12-24T15:59:01.180Z,1767
2022-12-24T16:00:01.123Z,2502
2022-12-24T16:01:01.154Z,2427
2022-12-24T16:03:01.524Z,1758
2022-12-24T16:04:01.235Z,2418
2022-12-24T16:05:01.128Z,2382
2022-12-24T16:06:01.153Z,2480
2022-12-24T16:08:01.325Z,1928
2022-12-24T16:09:01.121Z,2068
2022-12-24T16:10:01.139Z,2112
2022-12-24T16:11:01.124Z,2689
2022-12-24T16:13:01.315Z,2035
2022-12-24T16:14:01.129Z,2586
2022-12-24T16:15:01.133Z,1900
2022-12-24T16:16:01.177Z,1951
2022-12-24T16:18:01.287Z,1858
2022-12-24T16:19:01.140Z,1982
2022-12-24T16:20:01.125Z,2689
2022-12-24T16:21:01.131Z,2596
2022-12-24T16:23:01.256Z,2569
2022-12-24T16:24:01.139Z,2502
2022-12-24T16:25:01.124Z,2586
2022-12-24T16:26:01.199Z,1864
2022-12-24T16:28:02.808Z,2523
2022-12-24T16:29:01.159Z,1958
2022-12-24T16:30:01.132Z,1900
2022-12-24T16:31:01.150Z,1688
2022-12-24T16:33:01.293Z,2214
2022-12-24T16:34:01.146Z,2806
2022-12-24T16:35:01.128Z,2162
2022-12-24T16:36:01.148Z,2942
2022-12-24T16:38:01.253Z,2987
2022-12-24T16:39:01.134Z,2209
2022-12-24T16:40:01.144Z,2586
2022-12-24T16:41:01.143Z,2502
2022-12-24T16:43:01.264Z,1703
2022-12-24T16:44:01.145Z,1999
2022-12-24T16:45:01.151Z,2722
2022-12-24T16:46:01.162Z,2659
2022-12-24T16:48:01.301Z,2864
2022-12-24T16:49:01.162Z,2697
2022-12-24T16:50:01.140Z,2666
2022-12-24T16:51:01.155Z,2829
2022-12-24T16:53:01.260Z,1916
2022-12-24T16:54:01.160Z,2569